createdAt,value
2019-02-26T00:01:08.852Z,103330.25
2019-02-26T00:03:38.129Z,103333.61
2019-02-26T00:06:07.319Z,103323.30
2019-02-26T00:08:36.593Z,103313.56
2019-02-26T00:11:08.279Z,103301.14
2019-02-26T00:13:36.785Z,103306.20
2019-02-26T00:16:08.005Z,103300.47
2019-02-26T00:18:37.013Z,103295.77
2019-02-26T00:21:06.159Z,103303.48
2019-02-26T00:23:35.361Z,103303.79
2019-02-26T00:26:04.483Z,103297.69
2019-02-26T00:28:34.248Z,103295.97
2019-02-26T00:31:05.989Z,103287.83
2019-02-26T00:33:35.559Z,103296.86
2019-02-26T00:36:06.623Z,103293.00
2019-02-26T00:38:37.524Z,103298.55
2019-02-26T00:41:06.451Z,103296.41
2019-02-26T00:43:36.949Z,103300.41
2019-02-26T00:46:08.058Z,103296.77
2019-02-26T00:48:38.878Z,103293.50
2019-02-26T00:51:08.098Z,103304.69
2019-02-26T00:53:37.252Z,103304.06
2019-02-26T00:56:08.008Z,103306.51
2019-02-26T00:58:39.198Z,103307.80
2019-02-26T01:01:12.204Z,103305.98
2019-02-26T01:03:40.705Z,103303.47
2019-02-26T01:06:10.363Z,103298.69
2019-02-26T01:08:40.254Z,103300.42
2019-02-26T01:11:10.563Z,103299.19
2019-02-26T01:13:39.744Z,103297.83
2019-02-26T01:16:09.167Z,103298.12
2019-02-26T01:18:38.366Z,103296.65
2019-02-26T01:21:07.527Z,103293.14
2019-02-26T01:23:36.790Z,103298.48
2019-02-26T01:26:05.984Z,103291.30
2019-02-26T01:28:35.173Z,103304.42
2019-02-26T01:31:05.031Z,103301.92
2019-02-26T01:33:35.285Z,103292.56
2019-02-26T01:36:04.485Z,103297.11
2019-02-26T01:38:37.427Z,103292.73
2019-02-26T01:41:04.579Z,103290.92
2019-02-26T01:43:33.713Z,103290.93
2019-02-26T01:46:03.158Z,103280.30
2019-02-26T01:48:34.347Z,103275.72
2019-02-26T01:51:03.420Z,103285.83
2019-02-26T01:53:32.613Z,103278.37
2019-02-26T01:56:04.581Z,103269.98
2019-02-26T01:58:33.648Z,103260.24
2019-02-26T02:01:03.399Z,103256.84
2019-02-26T02:03:32.696Z,103250.88
2019-02-26T02:06:02.021Z,103247.03
2019-02-26T02:08:31.327Z,103243.17
2019-02-26T02:11:02.449Z,103231.95
2019-02-26T02:13:33.115Z,103228.03
2019-02-26T02:16:04.366Z,103231.40
2019-02-26T02:18:33.186Z,103227.53
2019-02-26T02:21:02.332Z,103227.41
2019-02-26T02:23:31.592Z,103236.25
2019-02-26T02:26:04.488Z,103240.05
2019-02-26T02:28:35.470Z,103239.59
2019-02-26T02:31:04.653Z,103240.88
2019-02-26T02:33:35.441Z,103239.97
2019-02-26T02:36:04.689Z,103241.28
2019-02-26T02:38:36.488Z,103236.69
2019-02-26T02:41:04.751Z,103235.34
2019-02-26T02:43:33.912Z,103237.72
2019-02-26T02:46:03.144Z,103239.70
2019-02-26T02:48:32.317Z,103240.79
2019-02-26T02:51:02.171Z,103233.88
2019-02-26T02:53:32.520Z,103239.97
2019-02-26T02:56:03.540Z,103238.98
2019-02-26T02:58:32.618Z,103238.95
2019-02-26T03:01:01.822Z,103235.12
2019-02-26T03:03:31.120Z,103234.84
2019-02-26T03:06:01.777Z,103237.39
2019-02-26T03:08:31.172Z,103239.23
2019-02-26T03:11:00.343Z,103240.33
2019-02-26T03:13:29.474Z,103245.89
2019-02-26T03:16:01.058Z,103246.09
2019-02-26T03:18:29.581Z,103244.19
2019-02-26T03:20:59.947Z,103249.44
2019-02-26T03:23:31.399Z,103247.25
2019-02-26T03:26:00.922Z,103247.95
2019-02-26T03:28:34.823Z,103253.50
2019-02-26T03:31:01.574Z,103247.08
2019-02-26T03:33:30.769Z,103240.45
2019-02-26T03:35:59.983Z,103236.91
2019-02-26T03:38:29.133Z,103251.84
2019-02-26T03:41:01.113Z,103243.97
2019-02-26T03:43:31.439Z,103240.03
2019-02-26T03:46:00.438Z,103241.34
2019-02-26T03:48:29.627Z,103243.62
2019-02-26T03:51:01.309Z,103244.36
2019-02-26T03:53:31.339Z,103247.23
2019-02-26T03:56:04.591Z,103246.09
2019-02-26T03:58:33.927Z,103249.41
2019-02-26T04:01:07.344Z,103248.37
2019-02-26T04:03:35.271Z,103244.68
2019-02-26T04:06:08.780Z,103247.55
2019-02-26T04:08:36.171Z,103242.08
2019-02-26T04:11:05.337Z,103249.63
2019-02-26T04:13:34.491Z,103254.17
2019-02-26T04:16:04.557Z,103251.45
2019-02-26T04:18:34.793Z,103252.04
2019-02-26T04:21:05.927Z,103259.31
2019-02-26T04:23:36.072Z,103254.08
2019-02-26T04:26:36.017Z,103252.27
2019-02-26T04:29:20.548Z,103246.47
2019-02-26T04:32:40.869Z,103246.47
2019-02-26T04:35:47.703Z,103245.70
2019-02-26T04:38:59.632Z,103246.08
2019-02-26T04:41:38.446Z,103243.84
2019-02-26T04:44:34.279Z,103235.80
2019-02-26T04:47:26.921Z,103235.27
2019-02-26T04:49:58.161Z,103235.14
2019-02-26T04:52:29.579Z,103237.00
2019-02-26T04:54:59.072Z,103237.23
2019-02-26T04:57:28.268Z,103239.61
2019-02-26T04:59:59.122Z,103245.82
2019-02-26T05:02:28.601Z,103246.54
2019-02-26T05:04:57.797Z,103239.19
2019-02-26T05:07:28.336Z,103240.41
2019-02-26T05:09:59.428Z,103239.22
2019-02-26T05:12:30.971Z,103246.16
2019-02-26T05:14:59.479Z,103249.02
2019-02-26T05:17:30.806Z,103237.81
2019-02-26T05:19:59.527Z,103230.33
2019-02-26T05:22:31.036Z,103231.44
2019-02-26T05:24:59.714Z,103228.66
2019-02-26T05:27:30.385Z,103232.04
2019-02-26T05:29:59.606Z,103234.94
2019-02-26T05:32:30.941Z,103230.55
2019-02-26T05:34:59.714Z,103231.59
2019-02-26T05:37:32.606Z,103235.67
2019-02-26T05:40:01.261Z,103233.33
2019-02-26T05:42:30.457Z,103229.89
2019-02-26T05:45:02.799Z,103233.61
2019-02-26T05:47:30.630Z,103236.92
2019-02-26T05:50:02.249Z,103237.59
2019-02-26T05:52:33.219Z,103235.45
2019-02-26T05:55:01.981Z,103229.72
2019-02-26T05:57:32.475Z,103228.41
2019-02-26T06:00:02.397Z,103220.60
2019-02-26T06:02:31.692Z,103221.50
2019-02-26T06:05:02.474Z,103224.66
2019-02-26T06:07:35.542Z,103226.00
2019-02-26T06:10:02.971Z,103210.45
2019-02-26T06:12:32.648Z,103207.92
2019-02-26T06:15:05.868Z,103217.91
2019-02-26T06:17:37.907Z,103215.38
2019-02-26T06:20:26.162Z,103219.45
2019-02-26T06:22:55.162Z,103221.53
2019-02-26T06:25:24.781Z,103225.32
2019-02-26T06:27:53.999Z,103221.09
2019-02-26T06:30:27.577Z,103222.50
2019-02-26T06:32:59.715Z,103221.12
2019-02-26T06:35:28.004Z,103223.66
2019-02-26T06:37:57.320Z,103223.27
2019-02-26T06:40:26.507Z,103222.17
2019-02-26T06:42:55.715Z,103226.98
2019-02-26T06:45:24.903Z,103232.88
2019-02-26T06:47:56.084Z,103230.88
2019-02-26T06:50:25.016Z,103230.78
2019-02-26T06:52:54.172Z,103229.20
2019-02-26T06:55:23.379Z,103231.30
2019-02-26T06:57:55.002Z,103241.93
2019-02-26T07:00:25.285Z,103249.31
2019-02-26T07:02:54.462Z,103248.57
2019-02-26T07:05:24.600Z,103252.91
2019-02-26T07:07:55.059Z,103260.95
2019-02-26T07:10:26.731Z,103260.83
2019-02-26T07:12:55.938Z,103266.72
2019-02-26T07:15:28.795Z,103265.63
2019-02-26T07:18:00.061Z,103269.38
2019-02-26T07:20:33.855Z,103276.94
2019-02-26T07:22:58.014Z,103274.23
2019-02-26T07:25:27.273Z,103269.61
2019-02-26T07:27:58.767Z,103272.16
2019-02-26T07:30:29.642Z,103271.95
2019-02-26T07:32:58.813Z,103268.17
2019-02-26T07:35:28.825Z,103267.91
2019-02-26T07:37:59.518Z,103258.05
2019-02-26T07:40:30.517Z,103254.21
2019-02-26T07:43:04.932Z,103253.67
2019-02-26T07:45:32.335Z,103255.34
2019-02-26T07:48:05.615Z,103249.39
2019-02-26T07:50:38.276Z,103253.77
2019-02-26T07:53:05.897Z,103252.50
2019-02-26T07:55:35.881Z,103249.59
2019-02-26T07:58:06.846Z,103245.88
2019-02-26T08:00:37.752Z,103252.00
2019-02-26T08:03:07.898Z,103245.33
2019-02-26T08:05:37.076Z,103254.16
2019-02-26T08:08:06.253Z,103251.25
2019-02-26T08:10:39.431Z,103251.39
2019-02-26T08:13:08.009Z,103241.16
2019-02-26T08:15:37.629Z,103249.44
2019-02-26T08:18:08.164Z,103241.88
2019-02-26T08:20:39.702Z,103246.27
2019-02-26T08:23:08.225Z,103246.83
2019-02-26T08:25:37.417Z,103251.28
2019-02-26T08:28:08.435Z,103251.75
2019-02-26T08:30:40.200Z,103255.64
2019-02-26T08:33:08.817Z,103258.28
2019-02-26T08:35:38.005Z,103260.03
2019-02-26T08:38:07.198Z,103252.30
2019-02-26T08:40:36.989Z,103259.20
2019-02-26T08:43:06.193Z,103250.58
2019-02-26T08:45:35.537Z,103246.66
2019-02-26T08:48:04.693Z,103243.56
2019-02-26T08:50:36.162Z,103246.09
2019-02-26T08:53:05.268Z,103240.89
2019-02-26T08:55:34.457Z,103244.35
2019-02-26T08:58:03.696Z,103243.48
2019-02-26T09:00:34.340Z,103240.39
2019-02-26T09:03:03.620Z,103247.55
2019-02-26T09:05:34.502Z,103246.52
2019-02-26T09:08:05.650Z,103240.20
2019-02-26T09:10:38.286Z,103245.19
2019-02-26T09:13:09.328Z,103243.24
2019-02-26T09:15:40.328Z,103247.98
2019-02-26T09:18:09.021Z,103252.75
2019-02-26T09:20:38.169Z,103250.42
2019-02-26T09:23:07.388Z,103246.66
2019-02-26T09:25:36.525Z,103248.19
2019-02-26T09:28:05.734Z,103251.48
2019-02-26T09:30:35.919Z,103252.49
2019-02-26T09:33:08.328Z,103256.17
2019-02-26T09:35:37.057Z,103251.50
2019-02-26T09:38:06.275Z,103258.60
2019-02-26T09:40:37.711Z,103253.45
2019-02-26T09:43:06.882Z,103255.08
2019-02-26T09:45:36.109Z,103254.41
2019-02-26T09:48:05.443Z,103255.37
2019-02-26T09:50:36.761Z,103256.73
2019-02-26T09:53:05.940Z,103250.75
2019-02-26T09:55:35.135Z,103244.73
2019-02-26T09:58:04.382Z,103241.58
2019-02-26T10:00:33.603Z,103240.82
2019-02-26T10:03:03.474Z,103244.52
2019-02-26T10:05:34.082Z,103243.68
2019-02-26T10:08:05.266Z,103242.45
2019-02-26T10:10:36.943Z,103237.52
2019-02-26T10:13:05.408Z,103227.14
2019-02-26T10:15:35.467Z,103227.29
2019-02-26T10:18:07.250Z,103228.77
2019-02-26T10:20:36.420Z,103232.73
2019-02-26T10:23:06.376Z,103231.13
2019-02-26T10:25:38.690Z,103237.02
2019-02-26T10:28:09.662Z,103238.91
2019-02-26T10:30:41.634Z,103234.13
2019-02-26T10:33:10.289Z,103230.59
2019-02-26T10:35:42.037Z,103232.25
2019-02-26T10:38:11.514Z,103224.44
2019-02-26T10:40:53.429Z,103223.28
2019-02-26T10:43:11.974Z,103221.17
2019-02-26T10:45:42.396Z,103221.53
2019-02-26T10:48:13.771Z,103218.50
2019-02-26T10:50:46.974Z,103219.59
2019-02-26T10:53:16.351Z,103223.25
2019-02-26T10:55:45.022Z,103226.64
2019-02-26T10:59:18.772Z,103224.28
2019-02-26T11:01:49.014Z,103219.59
2019-02-26T11:05:27.766Z,103219.65
2019-02-26T11:07:47.022Z,103217.84
2019-02-26T11:10:20.974Z,103220.59
2019-02-26T11:12:50.519Z,103224.07
2019-02-26T11:15:22.019Z,103224.41
2019-02-26T11:17:53.191Z,103223.38
2019-02-26T11:20:24.225Z,103231.31
2019-02-26T11:22:52.934Z,103227.33
2019-02-26T11:25:24.194Z,103226.17
2019-02-26T11:27:53.120Z,103219.49
2019-02-26T11:30:28.540Z,103221.86
2019-02-26T11:32:58.705Z,103216.16
2019-02-26T11:35:27.632Z,103224.02
2019-02-26T11:37:57.740Z,103221.80
2019-02-26T11:40:30.507Z,103214.63
2019-02-26T11:43:00.190Z,103209.60
2019-02-26T11:45:29.634Z,103206.88
2019-02-26T11:48:00.997Z,103205.32
2019-02-26T11:50:29.787Z,103203.83
2019-02-26T11:52:59.281Z,103207.17
2019-02-26T11:55:31.388Z,103203.30
2019-02-26T11:57:59.465Z,103205.14
2019-02-26T12:00:42.069Z,103204.09
2019-02-26T12:03:33.350Z,103196.53
2019-02-26T12:05:56.718Z,103194.80
2019-02-26T12:08:32.759Z,103190.98
2019-02-26T12:11:03.973Z,103193.48
2019-02-26T12:13:33.091Z,103196.08
2019-02-26T12:16:02.280Z,103185.31
2019-02-26T12:18:31.432Z,103180.56
2019-02-26T12:21:02.703Z,103182.36
2019-02-26T12:23:31.516Z,103181.88
2019-02-26T12:26:02.082Z,103181.00
2019-02-26T12:28:32.430Z,103171.95
2019-02-26T12:31:04.289Z,103162.39
2019-02-26T12:33:34.414Z,103164.45
2019-02-26T12:36:05.265Z,103161.13
2019-02-26T12:38:36.656Z,103152.22
2019-02-26T12:41:08.601Z,103149.11
2019-02-26T12:43:37.457Z,103138.98
2019-02-26T12:46:08.483Z,103139.91
2019-02-26T12:48:41.867Z,103137.38
2019-02-26T12:51:08.991Z,103143.02
2019-02-26T12:53:49.952Z,103132.61
2019-02-26T12:56:20.571Z,103128.80
2019-02-26T12:58:52.025Z,103123.20
2019-02-26T13:01:19.826Z,103121.49
2019-02-26T13:03:54.030Z,103110.95
2019-02-26T13:06:22.839Z,103107.73
2019-02-26T13:08:50.924Z,103104.75
2019-02-26T13:11:23.341Z,103100.03
2019-02-26T13:13:53.270Z,103091.20
2019-02-26T13:16:22.608Z,103086.28
2019-02-26T13:18:56.615Z,103086.92
2019-02-26T13:21:23.068Z,103087.16
2019-02-26T13:23:52.220Z,103090.34
2019-02-26T13:26:22.551Z,103091.48
2019-02-26T13:28:52.997Z,103080.73
2019-02-26T13:31:22.981Z,103072.59
2019-02-26T13:33:52.358Z,103069.69
2019-02-26T13:36:21.866Z,103068.66
2019-02-26T13:38:51.043Z,103071.52
2019-02-26T13:41:29.273Z,103060.91
2019-02-26T13:43:51.777Z,103056.42
2019-02-26T13:46:21.123Z,103058.20
2019-02-26T13:48:50.398Z,103062.98
2019-02-26T13:51:19.722Z,103059.78
2019-02-26T13:53:48.940Z,103056.04
2019-02-26T13:56:18.184Z,103054.55
2019-02-26T13:58:47.358Z,103055.72
2019-02-26T14:01:16.664Z,103055.31
2019-02-26T14:03:45.984Z,103051.50
2019-02-26T14:06:15.254Z,103047.87
2019-02-26T14:08:44.465Z,103045.08
2019-02-26T14:11:13.764Z,103049.19
2019-02-26T14:13:43.032Z,103034.36
2019-02-26T14:16:12.249Z,103024.50
2019-02-26T14:18:41.453Z,103031.43
2019-02-26T14:21:10.649Z,103021.41
2019-02-26T14:23:39.845Z,103023.22
2019-02-26T14:26:09.165Z,103026.45
2019-02-26T14:28:38.493Z,103024.41
2019-02-26T14:31:07.654Z,103019.86
2019-02-26T14:33:37.131Z,103020.96
2019-02-26T14:36:06.290Z,103009.41
2019-02-26T14:38:35.667Z,103019.61
2019-02-26T14:41:05.240Z,103019.84
2019-02-26T14:43:34.352Z,103018.41
2019-02-26T14:46:03.596Z,103018.05
2019-02-26T14:48:32.768Z,103015.56
2019-02-26T14:51:01.932Z,103015.08
2019-02-26T14:53:31.221Z,103006.28
2019-02-26T14:56:00.386Z,103010.56
2019-02-26T14:58:29.637Z,103011.75
2019-02-26T15:01:00.401Z,103011.03
2019-02-26T15:03:29.885Z,103016.77
2019-02-26T15:05:59.187Z,103009.72
2019-02-26T15:08:28.551Z,103008.69
2019-02-26T15:10:57.858Z,103009.44
2019-02-26T15:13:27.494Z,103010.31
2019-02-26T15:15:56.675Z,103013.33
2019-02-26T15:18:25.940Z,103013.17
2019-02-26T15:20:55.150Z,103005.82
2019-02-26T15:23:24.609Z,103001.84
2019-02-26T15:25:53.812Z,103014.02
2019-02-26T15:28:22.979Z,103022.72
2019-02-26T15:30:52.178Z,103016.45
2019-02-26T15:33:21.498Z,103019.81
2019-02-26T15:35:50.652Z,103013.93
2019-02-26T15:38:19.952Z,103006.97
2019-02-26T15:40:51.161Z,103008.47
2019-02-26T15:43:20.036Z,103007.95
2019-02-26T15:45:51.963Z,103011.69
2019-02-26T15:48:20.242Z,103011.53
2019-02-26T15:50:49.417Z,103011.03
2019-02-26T15:53:18.641Z,103005.99
2019-02-26T15:55:47.831Z,103003.37
2019-02-26T15:58:17.038Z,103002.81
2019-02-26T16:00:46.309Z,103008.79
2019-02-26T16:03:15.660Z,103008.66
2019-02-26T16:05:44.906Z,103003.84
2019-02-26T16:08:14.205Z,102999.62
2019-02-26T16:10:43.666Z,103003.00
2019-02-26T16:13:12.930Z,103006.63
2019-02-26T16:15:42.262Z,102999.48
2019-02-26T16:18:11.476Z,102997.65
2019-02-26T16:20:40.853Z,102998.33
2019-02-26T16:23:10.062Z,103001.61
2019-02-26T16:25:39.280Z,102998.56
2019-02-26T16:28:08.573Z,103003.34
2019-02-26T16:30:38.119Z,103004.70
2019-02-26T16:33:07.316Z,103000.15
2019-02-26T16:35:36.467Z,103003.52
2019-02-26T16:38:05.853Z,103002.86
2019-02-26T16:40:35.003Z,102999.70
2019-02-26T16:43:04.480Z,102999.57
2019-02-26T16:45:35.146Z,102999.22
2019-02-26T16:48:04.522Z,102993.00
2019-02-26T16:50:33.962Z,102989.55
2019-02-26T16:53:03.315Z,102993.48
2019-02-26T16:55:32.713Z,102993.94
2019-02-26T16:58:03.256Z,102996.01
2019-02-26T17:00:32.712Z,102993.31
2019-02-26T17:03:02.721Z,102997.09
2019-02-26T17:05:32.049Z,102995.80
2019-02-26T17:08:01.747Z,102992.73
2019-02-26T17:10:31.249Z,102993.14
2019-02-26T17:13:02.332Z,102988.89
2019-02-26T17:15:31.365Z,102992.15
2019-02-26T17:18:00.643Z,102987.16
2019-02-26T17:20:29.962Z,102986.59
2019-02-26T17:22:59.299Z,102996.33
2019-02-26T17:25:29.018Z,102996.58
2019-02-26T17:27:58.681Z,102996.71
2019-02-26T17:30:27.960Z,102996.39
2019-02-26T17:32:57.130Z,102995.96
2019-02-26T17:35:28.586Z,102997.50
2019-02-26T17:37:57.301Z,102991.91
2019-02-26T17:40:26.564Z,102997.05
2019-02-26T17:42:55.756Z,102990.64
2019-02-26T17:45:25.057Z,102995.98
2019-02-26T17:47:56.810Z,102992.13
2019-02-26T17:50:28.374Z,102980.82
2019-02-26T17:52:57.833Z,102982.05
2019-02-26T17:55:27.276Z,102978.73
2019-02-26T17:57:56.483Z,102971.40
2019-02-26T18:00:26.410Z,102978.76
2019-02-26T18:02:55.570Z,102985.48
2019-02-26T18:05:24.832Z,102988.84
2019-02-26T18:07:53.990Z,102986.05
2019-02-26T18:10:23.304Z,102987.48
2019-02-26T18:12:53.909Z,102983.28
2019-02-26T18:15:23.439Z,102987.95
2019-02-26T18:17:52.677Z,102993.79
2019-02-26T18:20:21.916Z,102988.40
2019-02-26T18:22:51.085Z,102986.00
2019-02-26T18:25:20.310Z,102986.17
2019-02-26T18:27:49.808Z,102983.17
2019-02-26T18:30:20.884Z,102987.75
2019-02-26T18:32:50.726Z,102980.56
2019-02-26T18:35:21.171Z,102981.01
2019-02-26T18:37:50.504Z,102982.50
2019-02-26T18:40:20.022Z,102982.66
2019-02-26T18:42:49.206Z,102981.95
2019-02-26T18:45:20.317Z,102976.87
2019-02-26T18:47:49.548Z,102977.88
2019-02-26T18:50:19.295Z,102980.92
2019-02-26T18:52:48.575Z,102978.92
2019-02-26T18:55:18.683Z,102975.15
2019-02-26T18:57:48.104Z,102978.75
2019-02-26T19:00:19.700Z,102975.84
2019-02-26T19:02:49.073Z,102976.92
2019-02-26T19:05:20.812Z,102980.56
2019-02-26T19:07:49.580Z,102980.28
2019-02-26T19:10:20.865Z,102981.63
2019-02-26T19:12:50.301Z,102979.18
2019-02-26T19:15:19.969Z,102980.25
2019-02-26T19:17:50.669Z,102983.81
2019-02-26T19:20:22.412Z,102978.67
2019-02-26T19:22:52.198Z,102979.19
2019-02-26T19:25:21.466Z,102978.37
2019-02-26T19:27:53.189Z,102975.30
2019-02-26T19:30:23.575Z,102980.16
2019-02-26T19:32:52.893Z,102982.28
2019-02-26T19:35:22.161Z,102982.06
2019-02-26T19:37:55.123Z,102976.50
2019-02-26T19:40:26.937Z,102974.48
2019-02-26T19:42:56.410Z,102977.55
2019-02-26T19:45:25.906Z,102974.53
2019-02-26T19:47:56.076Z,102971.14
2019-02-26T19:50:26.053Z,102978.11
2019-02-26T19:52:57.160Z,102978.00
2019-02-26T19:55:28.939Z,102977.22
2019-02-26T19:57:58.209Z,102975.59
2019-02-26T20:00:27.505Z,102968.77
2019-02-26T20:02:56.763Z,102966.22
2019-02-26T20:05:26.056Z,102961.14
2019-02-26T20:07:56.798Z,102960.65
2019-02-26T20:10:26.050Z,102964.54
2019-02-26T20:12:55.278Z,102960.79
2019-02-26T20:15:24.586Z,102955.28
2019-02-26T20:17:55.463Z,102957.89
2019-02-26T20:20:24.736Z,102960.53
2019-02-26T20:22:54.019Z,102961.02
2019-02-26T20:25:23.750Z,102954.03
2019-02-26T20:27:54.783Z,102954.05
2019-02-26T20:30:24.407Z,102946.53
2019-02-26T20:32:55.953Z,102947.20
2019-02-26T20:35:25.324Z,102944.66
2019-02-26T20:37:58.634Z,102941.72
2019-02-26T20:40:28.444Z,102944.75
2019-02-26T20:43:01.284Z,102943.78
2019-02-26T20:45:28.880Z,102946.41
2019-02-26T20:48:03.858Z,102942.19
2019-02-26T20:50:31.856Z,102944.00
2019-02-26T20:53:05.590Z,102941.03
2019-02-26T20:55:35.303Z,102942.33
2019-02-26T20:58:05.363Z,102940.67
2019-02-26T21:00:34.801Z,102941.02
2019-02-26T21:03:04.258Z,102946.30
2019-02-26T21:05:34.658Z,102951.91
2019-02-26T21:08:05.224Z,102945.08
2019-02-26T21:10:34.543Z,102942.41
2019-02-26T21:13:04.052Z,102941.64
2019-02-26T21:15:33.088Z,102936.08
2019-02-26T21:18:02.957Z,102941.20
2019-02-26T21:20:32.187Z,102939.03
2019-02-26T21:23:02.554Z,102933.08
2019-02-26T21:25:31.831Z,102931.79
2019-02-26T21:28:05.376Z,102936.58
2019-02-26T21:30:34.842Z,102933.94
2019-02-26T21:33:04.099Z,102928.37
2019-02-26T21:35:33.300Z,102931.02
2019-02-26T21:38:05.738Z,102924.08
2019-02-26T21:40:37.359Z,102928.86
2019-02-26T21:43:07.651Z,102926.27
2019-02-26T21:45:37.208Z,102926.73
2019-02-26T21:48:06.530Z,102923.29
2019-02-26T21:50:35.787Z,102924.16
2019-02-26T21:53:04.967Z,102928.43
2019-02-26T21:55:43.884Z,102918.12
2019-02-26T21:58:05.181Z,102928.91
2019-02-26T22:00:36.730Z,102932.34
2019-02-26T22:03:07.899Z,102931.48
2019-02-26T22:05:37.916Z,102925.89
2019-02-26T22:08:07.536Z,102921.59
2019-02-26T22:10:36.830Z,102922.44
2019-02-26T22:13:06.036Z,102918.12
2019-02-26T22:15:36.257Z,102921.59
2019-02-26T22:18:06.019Z,102918.13
2019-02-26T22:20:36.488Z,102920.30
2019-02-26T22:23:07.282Z,102920.28
2019-02-26T22:25:37.482Z,102918.15
2019-02-26T22:28:08.727Z,102917.70
2019-02-26T22:30:37.617Z,102911.23
2019-02-26T22:33:07.985Z,102915.13
2019-02-26T22:35:37.714Z,102911.66
2019-02-26T22:38:06.943Z,102917.24
2019-02-26T22:40:36.175Z,102919.41
2019-02-26T22:43:05.455Z,102918.98
2019-02-26T22:45:34.706Z,102914.23
2019-02-26T22:48:05.580Z,102923.66
2019-02-26T22:50:34.732Z,102925.41
2019-02-26T22:53:04.591Z,102922.39
2019-02-26T22:55:33.856Z,102922.80
2019-02-26T22:58:03.392Z,102927.09
2019-02-26T23:01:02.734Z,102923.20
2019-02-26T23:03:32.201Z,102920.14
2019-02-26T23:06:01.360Z,102921.91
2019-02-26T23:08:30.535Z,102916.78
2019-02-26T23:10:59.825Z,102915.44
2019-02-26T23:13:31.818Z,102913.70
2019-02-26T23:16:00.008Z,102911.09
2019-02-26T23:18:30.952Z,102910.23
2019-02-26T23:21:00.127Z,102909.30
2019-02-26T23:23:29.352Z,102904.16
2019-02-26T23:25:58.522Z,102898.13
2019-02-26T23:28:27.736Z,102903.33
2019-02-26T23:30:59.707Z,102905.94
2019-02-26T23:33:28.514Z,102899.48
2019-02-26T23:35:57.966Z,102898.20
2019-02-26T23:38:27.155Z,102898.13
2019-02-26T23:40:58.158Z,102890.38
2019-02-26T23:43:27.476Z,102895.54
2019-02-26T23:45:57.539Z,102894.63
2019-02-26T23:48:26.844Z,102887.36
2019-02-26T23:50:56.032Z,102887.78
2019-02-26T23:53:25.231Z,102885.16
2019-02-26T23:55:54.428Z,102880.45
2019-02-26T23:58:23.567Z,102884.67
